Time;durP1;ratioP1;P1;durP2;ratioP2;P2;SDS_P1;SDS_P2;PMS_P1;PMS_P2;Temp;Humidity;BMP_temperature;BMP_pressure;BME280_temperature;BME280_humidity;BME280_pressure;Samples;Min_cycle;Max_cycle;Signal;HPM_P1;HPM_P2
2023/05/23 00:00:36;;;;;;;10.02;9.02;;;17.30;77.20;;;;;;5015472;28;20141;-63
2023/05/23 00:03:03;;;;;;;10.45;9.35;;;17.30;77.20;;;;;;5016129;28;20038;-63
2023/05/23 00:05:28;;;;;;;10.43;9.43;;;17.30;77.20;;;;;;5016416;28;20113;-63
2023/05/23 00:07:54;;;;;;;12.73;10.43;;;17.30;77.00;;;;;;5010629;28;20120;-64
2023/05/23 00:10:21;;;;;;;11.55;9.57;;;17.30;77.30;;;;;;5010912;28;20061;-63
2023/05/23 00:12:46;;;;;;;10.43;9.32;;;17.40;77.30;;;;;;5007429;28;20048;-63
2023/05/23 00:15:12;;;;;;;10.40;9.25;;;17.30;77.10;;;;;;5002468;28;20041;-63
2023/05/23 00:17:38;;;;;;;11.00;9.85;;;17.40;77.20;;;;;;5005373;28;20456;-63
2023/05/23 00:20:08;;;;;;;11.35;9.40;;;17.30;77.10;;;;;;5005127;28;20037;-63
2023/05/23 00:22:35;;;;;;;10.85;9.52;;;17.40;77.30;;;;;;5005323;28;20112;-61
2023/05/23 00:25:01;;;;;;;11.40;9.65;;;17.40;77.10;;;;;;5005994;28;20081;-63
2023/05/23 00:27:26;;;;;;;11.57;9.20;;;17.40;77.10;;;;;;5007873;28;20037;-63
2023/05/23 00:29:52;;;;;;;11.18;9.35;;;17.40;76.80;;;;;;5006699;28;20107;-63
2023/05/23 00:32:17;;;;;;;10.27;9.18;;;17.40;76.60;;;;;;5004454;28;20068;-63
2023/05/23 00:34:44;;;;;;;10.45;8.93;;;17.40;76.60;;;;;;5004129;28;20453;-63
2023/05/23 00:37:10;;;;;;;10.93;8.88;;;17.30;76.80;;;;;;5006254;28;20046;-63
2023/05/23 00:39:36;;;;;;;10.07;9.07;;;17.30;76.70;;;;;;5005164;28;20545;-63
2023/05/23 00:42:04;;;;;;;10.60;9.50;;;17.30;76.60;;;;;;5004912;28;20125;-63
2023/05/23 00:44:29;;;;;;;10.55;9.30;;;17.30;76.90;;;;;;5008335;28;20124;-62
2023/05/23 00:46:56;;;;;;;12.32;9.57;;;17.20;76.80;;;;;;5005048;28;20112;-63
2023/05/23 00:49:23;;;;;;;10.57;9.57;;;17.20;77.00;;;;;;5006391;28;20038;-63
2023/05/23 00:51:50;;;;;;;10.45;9.18;;;17.10;77.00;;;;;;5005241;28;20064;-63
2023/05/23 00:54:32;;;;;;;11.38;10.07;;;17.10;77.10;;;;;;5007195;28;20034;-63
2023/05/23 00:57:01;;;;;;;10.73;9.60;;;17.10;78.20;;;;;;5007173;28;20049;-63
2023/05/23 00:59:27;;;;;;;11.15;9.98;;;17.00;77.70;;;;;;5011394;28;20762;-63
2023/05/23 01:01:55;;;;;;;13.38;10.80;;;17.00;77.50;;;;;;5005931;28;20042;-63
2023/05/23 01:04:25;;;;;;;11.20;9.88;;;17.00;77.70;;;;;;5007874;28;20034;-63
2023/05/23 01:06:53;;;;;;;13.95;10.65;;;17.00;77.80;;;;;;5008520;28;20041;-63
2023/05/23 01:09:20;;;;;;;12.98;10.05;;;16.90;77.80;;;;;;5008553;28;20041;-63
2023/05/23 01:12:01;;;;;;;11.23;10.10;;;16.90;77.90;;;;;;5006309;28;20045;-63
2023/05/23 01:15:00;;;;;;;11.13;9.85;;;16.80;78.70;;;;;;5012068;28;20034;-63
2023/05/23 01:17:41;;;;;;;11.18;9.15;;;16.70;78.80;;;;;;5006047;28;20529;-63
2023/05/23 01:20:12;;;;;;;11.63;10.27;;;16.70;78.30;;;;;;5009233;28;20046;-62
2023/05/23 01:23:04;;;;;;;12.88;9.85;;;16.60;78.10;;;;;;5008024;28;20042;-63
2023/05/23 01:26:02;;;;;;;10.90;9.80;;;16.60;78.90;;;;;;5009431;28;20053;-63
2023/05/23 01:28:40;;;;;;;10.60;8.90;;;16.50;79.50;;;;;;5009617;28;20040;-64
2023/05/23 01:31:09;;;;;;;11.43;9.52;;;16.50;79.10;;;;;;5013203;28;20425;-63
2023/05/23 01:33:36;;;;;;;10.45;9.35;;;16.40;78.60;;;;;;5011304;28;20041;-63
2023/05/23 01:36:02;;;;;;;11.32;9.30;;;16.40;78.70;;;;;;5013142;28;20103;-62
2023/05/23 01:38:28;;;;;;;10.45;9.05;;;16.40;78.60;;;;;;5013198;28;20025;-63
2023/05/23 01:40:54;;;;;;;9.82;8.85;;;16.40;78.60;;;;;;5010019;28;20030;-63
2023/05/23 01:43:21;;;;;;;12.00;8.85;;;16.40;78.70;;;;;;5011566;28;21062;-63
2023/05/23 01:45:47;;;;;;;10.40;9.10;;;16.40;78.60;;;;;;5013137;28;20041;-62
2023/05/23 01:48:15;;;;;;;16.08;9.23;;;16.40;78.70;;;;;;5013453;28;20038;-63
2023/05/23 01:50:44;;;;;;;9.80;8.77;;;16.40;78.70;;;;;;5009266;28;20156;-63
2023/05/23 01:53:11;;;;;;;9.30;8.38;;;16.30;78.60;;;;;;5007796;28;20033;-63
2023/05/23 01:55:39;;;;;;;11.35;10.10;;;16.30;78.60;;;;;;5008632;28;20045;-61
2023/05/23 01:58:05;;;;;;;12.90;10.30;;;16.30;78.60;;;;;;5013401;28;20068;-63
2023/05/23 02:00:30;;;;;;;13.32;10.35;;;16.30;78.50;;;;;;5009547;28;20509;-63
2023/05/23 02:02:56;;;;;;;12.15;9.52;;;16.30;78.60;;;;;;5009713;28;20045;-63
2023/05/23 02:05:22;;;;;;;12.05;10.38;;;16.30;78.80;;;;;;5009429;28;20037;-62
2023/05/23 02:07:48;;;;;;;11.77;9.75;;;16.20;79.80;;;;;;5007775;28;20084;-63
2023/05/23 02:10:13;;;;;;;11.98;9.65;;;16.20;79.10;;;;;;5013315;28;20116;-63
2023/05/23 02:12:39;;;;;;;14.77;10.25;;;16.20;79.10;;;;;;5008886;28;20041;-63
2023/05/23 02:15:06;;;;;;;11.93;10.20;;;16.10;79.10;;;;;;5012900;28;20053;-63
2023/05/23 02:17:32;;;;;;;12.57;10.20;;;16.10;79.10;;;;;;5010591;28;20091;-63
2023/05/23 02:19:57;;;;;;;14.30;11.07;;;16.10;79.10;;;;;;5013960;28;20046;-63
2023/05/23 02:22:24;;;;;;;11.43;9.38;;;16.10;79.10;;;;;;5009342;28;20068;-63
2023/05/23 02:24:50;;;;;;;13.32;9.82;;;16.00;79.00;;;;;;5010996;28;20056;-63
2023/05/23 02:27:16;;;;;;;13.18;9.98;;;16.00;79.10;;;;;;5009009;28;20042;-63
2023/05/23 02:29:41;;;;;;;12.65;10.23;;;16.00;79.30;;;;;;5010284;28;20525;-63
2023/05/23 02:32:07;;;;;;;11.43;9.57;;;16.00;79.40;;;;;;5008865;28;20042;-63
2023/05/23 02:34:32;;;;;;;11.93;9.70;;;16.00;79.30;;;;;;5008510;28;20498;-63
2023/05/23 02:36:58;;;;;;;10.77;9.48;;;16.00;79.30;;;;;;5007999;28;20038;-63
2023/05/23 02:39:23;;;;;;;12.40;10.13;;;16.00;79.30;;;;;;5010064;28;20038;-63
2023/05/23 02:41:49;;;;;;;12.15;10.50;;;16.10;79.40;;;;;;5008776;28;20041;-63
2023/05/23 02:44:14;;;;;;;11.35;9.98;;;16.00;79.30;;;;;;5007085;28;20033;-63
2023/05/23 02:46:40;;;;;;;10.70;9.52;;;16.10;79.30;;;;;;5008427;28;20584;-62
2023/05/23 02:49:06;;;;;;;10.65;9.40;;;16.10;79.20;;;;;;5005480;28;20486;-63
2023/05/23 02:51:31;;;;;;;14.38;9.88;;;16.10;79.30;;;;;;5010678;28;20038;-63
2023/05/23 02:53:57;;;;;;;11.93;10.10;;;16.00;79.40;;;;;;5010632;28;20501;-63
2023/05/23 02:56:23;;;;;;;11.43;9.48;;;16.10;79.50;;;;;;5010742;28;20785;-63
2023/05/23 02:58:48;;;;;;;11.90;10.32;;;16.10;79.60;;;;;;5010095;28;20121;-63
2023/05/23 03:01:15;;;;;;;11.88;10.23;;;16.10;79.60;;;;;;5012015;28;20225;-63
2023/05/23 03:03:43;;;;;;;12.55;9.80;;;16.10;79.70;;;;;;5008345;28;20034;-63
2023/05/23 03:06:13;;;;;;;13.88;10.98;;;16.10;79.80;;;;;;5008335;28;20037;-63
2023/05/23 03:08:42;;;;;;;14.13;10.20;;;16.10;80.10;;;;;;5007994;28;20026;-62
2023/05/23 03:11:08;;;;;;;13.95;11.70;;;16.10;80.50;;;;;;5008223;28;20273;-62
2023/05/23 03:13:36;;;;;;;15.40;11.80;;;16.00;80.70;;;;;;5007487;28;20117;-63
2023/05/23 03:16:02;;;;;;;13.57;11.48;;;16.10;81.20;;;;;;4995523;28;20513;-62
2023/05/23 03:18:27;;;;;;;14.07;11.82;;;16.00;81.20;;;;;;5008584;28;20048;-63
2023/05/23 03:20:53;;;;;;;12.98;11.30;;;16.10;81.50;;;;;;5008561;28;20034;-63
2023/05/23 03:23:19;;;;;;;14.52;11.57;;;16.10;81.50;;;;;;5008640;28;20072;-63
2023/05/23 03:25:44;;;;;;;13.27;11.00;;;16.10;81.50;;;;;;5008342;28;20042;-63
2023/05/23 03:28:13;;;;;;;14.98;11.80;;;16.10;81.50;;;;;;5009282;28;20141;-63
2023/05/23 03:30:39;;;;;;;13.65;11.93;;;16.10;81.30;;;;;;5005372;28;20525;-63
2023/05/23 03:33:05;;;;;;;15.18;12.05;;;16.20;81.30;;;;;;5005342;28;20053;-63
2023/05/23 03:35:31;;;;;;;16.38;12.95;;;16.20;81.30;;;;;;5009424;28;20042;-63
2023/05/23 03:37:57;;;;;;;15.27;12.93;;;16.20;81.20;;;;;;5006374;28;20499;-62
2023/05/23 03:40:22;;;;;;;14.70;12.25;;;16.20;81.20;;;;;;5005091;28;20033;-63
2023/05/23 03:43:03;;;;;;;15.20;12.15;;;16.10;82.00;;;;;;5005082;28;20326;-62
2023/05/23 03:45:30;;;;;;;20.05;14.63;;;16.20;81.80;;;;;;5006701;28;20444;-62
2023/05/23 03:47:56;;;;;;;20.33;15.32;;;16.10;81.20;;;;;;5007818;28;20095;-63
2023/05/23 03:50:22;;;;;;;21.63;14.75;;;16.10;81.50;;;;;;5008613;28;20042;-63
2023/05/23 03:52:47;;;;;;;20.23;15.10;;;16.10;81.60;;;;;;5008926;28;20041;-63
2023/05/23 03:55:13;;;;;;;20.95;14.98;;;16.10;81.80;;;;;;5008717;28;20042;-63
2023/05/23 03:57:40;;;;;;;20.75;14.05;;;16.10;81.80;;;;;;5006888;28;20056;-63
2023/05/23 04:00:10;;;;;;;17.38;12.07;;;16.10;81.90;;;;;;5004633;28;20038;-63
2023/05/23 04:02:38;;;;;;;17.55;12.38;;;16.00;81.70;;;;;;5005652;28;20041;-62
2023/05/23 04:05:04;;;;;;;14.15;12.07;;;16.10;82.40;;;;;;5006411;28;20041;-62
2023/05/23 04:07:33;;;;;;;16.83;13.77;;;16.10;81.30;;;;;;5005631;28;20038;-63
2023/05/23 04:09:59;;;;;;;19.85;13.95;;;16.10;81.40;;;;;;5004969;28;20049;-62
2023/05/23 04:12:25;;;;;;;19.27;14.88;;;16.00;81.50;;;;;;5003558;28;20405;-63
2023/05/23 04:14:51;;;;;;;19.67;15.60;;;16.20;81.80;;;;;;5006284;28;20041;-63
2023/05/23 04:17:17;;;;;;;17.20;14.20;;;16.10;81.80;;;;;;5006769;28;20120;-62
2023/05/23 04:19:43;;;;;;;21.52;14.80;;;16.20;81.90;;;;;;5002863;28;20037;-63
2023/05/23 04:22:08;;;;;;;20.00;15.57;;;16.20;81.90;;;;;;5004348;28;20096;-63
2023/05/23 04:24:34;;;;;;;25.13;16.70;;;16.20;81.90;;;;;;5007787;28;20109;-63
2023/05/23 04:27:00;;;;;;;26.30;16.90;;;16.20;82.10;;;;;;5008682;28;20036;-61
2023/05/23 04:29:26;;;;;;;24.05;17.08;;;16.30;82.20;;;;;;5007770;28;20040;-63
2023/05/23 04:31:53;;;;;;;24.63;17.10;;;16.30;82.40;;;;;;5008363;28;20033;-63
2023/05/23 04:34:21;;;;;;;24.05;16.23;;;16.40;82.50;;;;;;5006425;28;20038;-63
2023/05/23 04:36:47;;;;;;;24.50;16.50;;;16.30;82.40;;;;;;5007360;28;20544;-63
2023/05/23 04:39:13;;;;;;;22.13;16.55;;;16.30;82.60;;;;;;5010658;28;20172;-63
2023/05/23 04:41:38;;;;;;;23.48;17.48;;;16.30;82.70;;;;;;4998178;28;20396;-63
2023/05/23 04:44:04;;;;;;;24.83;17.83;;;16.40;82.80;;;;;;5006505;28;20600;-63
2023/05/23 04:46:30;;;;;;;35.35;24.52;;;16.40;82.70;;;;;;5010593;28;20046;-62
2023/05/23 04:48:57;;;;;;;32.90;22.73;;;16.40;82.80;;;;;;5012809;28;20045;-63
2023/05/23 04:51:23;;;;;;;28.13;20.88;;;16.50;82.90;;;;;;5012117;28;20065;-63
2023/05/23 04:53:51;;;;;;;27.63;19.90;;;16.50;83.10;;;;;;5011876;28;20584;-63
2023/05/23 04:56:19;;;;;;;25.92;18.67;;;16.50;83.30;;;;;;5013581;28;20038;-62
2023/05/23 04:58:45;;;;;;;25.33;19.25;;;16.60;83.20;;;;;;5011812;28;20509;-63
2023/05/23 05:01:12;;;;;;;25.50;18.30;;;16.60;83.00;;;;;;5013223;28;20040;-63
2023/05/23 05:03:38;;;;;;;23.90;17.45;;;16.70;83.10;;;;;;5011665;28;20037;-63
2023/05/23 05:06:04;;;;;;;26.80;17.92;;;16.70;83.30;;;;;;5012851;28;20065;-61
2023/05/23 05:08:30;;;;;;;35.03;20.08;;;16.80;83.60;;;;;;5012951;28;20034;-64
2023/05/23 05:10:56;;;;;;;38.00;19.80;;;16.80;84.50;;;;;;5008847;28;20061;-63
2023/05/23 05:13:21;;;;;;;34.45;20.45;;;16.80;83.80;;;;;;5012019;28;20041;-63
2023/05/23 05:15:47;;;;;;;31.98;19.77;;;16.80;84.00;;;;;;5010768;28;20147;-63
2023/05/23 05:18:13;;;;;;;34.47;21.13;;;16.80;84.10;;;;;;5012646;28;20458;-63
2023/05/23 05:20:38;;;;;;;31.88;22.10;;;16.90;84.30;;;;;;5011857;28;20386;-62
2023/05/23 05:23:04;;;;;;;52.85;35.45;;;16.90;84.50;;;;;;5012411;28;20061;-63
2023/05/23 05:25:34;;;;;;;36.13;23.15;;;16.90;84.60;;;;;;5014377;28;20037;-63
2023/05/23 05:28:04;;;;;;;39.22;23.73;;;17.00;84.50;;;;;;5012032;28;20034;-63
2023/05/23 05:30:33;;;;;;;31.50;21.73;;;17.10;84.60;;;;;;5012179;28;20615;-63
2023/05/23 05:33:00;;;;;;;33.80;24.25;;;17.10;84.80;;;;;;5013144;28;20130;-63
2023/05/23 05:35:26;;;;;;;36.53;23.45;;;17.20;84.90;;;;;;5013878;28;20044;-63
2023/05/23 05:37:52;;;;;;;40.15;25.10;;;17.20;84.90;;;;;;5014154;28;20034;-63
2023/05/23 05:40:17;;;;;;;34.42;23.20;;;17.30;84.90;;;;;;5013451;28;20132;-63
2023/05/23 05:42:43;;;;;;;39.70;24.55;;;17.40;84.80;;;;;;5017988;28;20044;-63
2023/05/23 05:45:10;;;;;;;35.13;23.90;;;17.50;84.90;;;;;;5019153;28;20101;-63
2023/05/23 05:47:37;;;;;;;38.25;25.35;;;17.50;85.00;;;;;;5019128;28;20030;-63
2023/05/23 05:50:08;;;;;;;39.88;26.35;;;17.60;84.80;;;;;;5018486;28;20069;-63
2023/05/23 05:52:37;;;;;;;40.65;26.85;;;17.60;84.60;;;;;;5018523;28;20044;-63
2023/05/23 05:55:05;;;;;;;42.83;26.75;;;17.80;84.90;;;;;;5017838;28;20052;-62
2023/05/23 05:57:31;;;;;;;41.47;26.77;;;17.80;85.10;;;;;;5015322;28;20524;-63
2023/05/23 05:59:56;;;;;;;35.28;24.58;;;17.90;85.10;;;;;;5016944;28;20077;-63
2023/05/23 06:02:22;;;;;;;41.28;26.35;;;17.90;85.00;;;;;;5014940;28;20038;-63
2023/05/23 06:04:47;;;;;;;41.90;27.67;;;18.00;84.90;;;;;;5015954;28;20037;-63
2023/05/23 06:07:13;;;;;;;41.38;28.35;;;18.10;84.90;;;;;;5011135;28;20064;-62
2023/05/23 06:09:38;;;;;;;39.75;26.83;;;18.10;84.80;;;;;;5015754;28;20046;-63
2023/05/23 06:12:04;;;;;;;43.25;28.67;;;18.20;84.60;;;;;;5013462;28;20041;-63
2023/05/23 06:14:30;;;;;;;43.47;28.75;;;18.20;84.70;;;;;;5016023;28;20030;-64
2023/05/23 06:16:55;;;;;;;44.40;27.75;;;18.30;84.80;;;;;;5013894;28;20633;-63
2023/05/23 06:19:21;;;;;;;46.22;27.65;;;18.30;84.70;;;;;;5015678;28;20530;-63
2023/05/23 06:21:47;;;;;;;44.65;27.90;;;18.40;84.70;;;;;;5016077;28;20030;-63
2023/05/23 06:24:12;;;;;;;43.45;28.17;;;18.40;84.80;;;;;;5014356;28;20030;-63
2023/05/23 06:26:38;;;;;;;42.58;28.38;;;18.50;84.80;;;;;;5016014;28;20245;-63
2023/05/23 06:29:03;;;;;;;40.60;27.58;;;18.60;84.70;;;;;;5015172;28;20048;-63
2023/05/23 06:31:29;;;;;;;43.38;27.88;;;18.60;84.50;;;;;;5015924;28;20202;-63
2023/05/23 06:33:54;;;;;;;45.72;29.15;;;18.70;84.60;;;;;;5015700;28;20276;-63
2023/05/23 06:36:20;;;;;;;48.53;30.70;;;18.70;84.50;;;;;;5014751;28;20529;-63
2023/05/23 06:38:46;;;;;;;45.35;30.10;;;18.80;84.50;;;;;;5014199;28;20556;-64
2023/05/23 06:41:12;;;;;;;47.92;30.27;;;18.80;84.40;;;;;;5014086;28;20026;-63
2023/05/23 06:43:38;;;;;;;48.45;30.70;;;18.90;84.40;;;;;;5014316;28;20030;-63
2023/05/23 06:46:03;;;;;;;49.08;29.92;;;18.90;84.50;;;;;;5015085;28;20033;-63
2023/05/23 06:48:29;;;;;;;48.42;30.75;;;18.90;84.30;;;;;;5014299;28;20049;-64
2023/05/23 06:50:55;;;;;;;45.90;29.92;;;18.90;84.50;;;;;;5014058;28;20459;-63
2023/05/23 06:53:20;;;;;;;47.70;30.10;;;18.90;84.30;;;;;;5013368;28;20030;-62
2023/05/23 06:55:46;;;;;;;45.83;29.52;;;18.90;84.30;;;;;;5013304;28;20096;-63
2023/05/23 06:58:11;;;;;;;50.75;31.38;;;18.90;84.40;;;;;;5013430;28;20553;-63
2023/05/23 07:00:37;;;;;;;49.75;29.63;;;19.00;84.40;;;;;;5014599;28;20422;-63
2023/05/23 07:03:03;;;;;;;49.40;30.58;;;19.00;84.40;;;;;;5014751;28;20042;-63
2023/05/23 07:05:29;;;;;;;49.13;30.75;;;19.00;84.50;;;;;;5014835;28;20504;-63
2023/05/23 07:07:55;;;;;;;47.90;31.48;;;19.00;84.30;;;;;;5012529;28;20041;-63
2023/05/23 07:10:21;;;;;;;46.35;30.80;;;19.00;85.00;;;;;;5012958;28;20283;-62
2023/05/23 07:12:47;;;;;;;53.95;32.80;;;19.00;84.30;;;;;;5011691;28;20049;-63
2023/05/23 07:15:13;;;;;;;49.90;30.60;;;19.00;84.20;;;;;;5011373;28;20049;-63
2023/05/23 07:17:39;;;;;;;48.90;30.23;;;19.10;84.20;;;;;;5014253;28;20341;-63
2023/05/23 07:20:06;;;;;;;48.30;31.52;;;19.20;84.50;;;;;;5015760;28;20128;-63
2023/05/23 07:22:31;;;;;;;49.13;32.28;;;19.20;84.50;;;;;;5015097;28;20064;-64
2023/05/23 07:24:57;;;;;;;46.65;29.58;;;19.20;84.30;;;;;;5012801;28;20509;-63
2023/05/23 07:27:22;;;;;;;47.88;31.13;;;19.30;83.90;;;;;;5014414;28;20057;-63
2023/05/23 07:29:48;;;;;;;43.80;29.63;;;19.30;83.80;;;;;;5013086;28;20417;-63
2023/05/23 07:32:14;;;;;;;48.33;31.23;;;19.40;84.10;;;;;;5013630;28;20045;-63
2023/05/23 07:34:40;;;;;;;50.25;31.85;;;19.40;83.40;;;;;;5015184;28;20543;-63
2023/05/23 07:37:05;;;;;;;50.45;31.90;;;19.50;83.00;;;;;;5012569;28;20064;-64
2023/05/23 07:39:31;;;;;;;48.15;31.33;;;19.50;82.70;;;;;;5015296;28;20065;-64
2023/05/23 07:41:56;;;;;;;46.25;30.60;;;19.60;82.70;;;;;;5013873;28;20125;-63
2023/05/23 07:44:22;;;;;;;50.00;30.95;;;19.70;82.80;;;;;;5012389;28;20037;-63
2023/05/23 07:46:47;;;;;;;45.72;31.73;;;19.80;83.00;;;;;;5012835;28;20065;-63
2023/05/23 07:49:13;;;;;;;47.03;31.58;;;19.80;83.00;;;;;;5013135;28;20034;-63
2023/05/23 07:51:39;;;;;;;47.17;31.02;;;19.90;83.10;;;;;;5012492;28;20044;-63
2023/05/23 07:54:04;;;;;;;47.40;30.55;;;20.10;83.10;;;;;;5013166;28;20036;-63
2023/05/23 07:56:30;;;;;;;46.47;30.17;;;20.20;82.60;;;;;;5014364;28;20445;-63
2023/05/23 07:58:56;;;;;;;45.78;31.90;;;20.30;81.90;;;;;;5013432;28;20398;-64
2023/05/23 08:01:23;;;;;;;47.00;31.63;;;20.40;81.40;;;;;;5011032;28;20037;-63
2023/05/23 08:03:49;;;;;;;46.53;31.83;;;20.50;80.80;;;;;;5010517;28;20034;-63
2023/05/23 08:06:14;;;;;;;46.47;31.25;;;20.60;80.50;;;;;;5011414;28;20041;-64
2023/05/23 08:08:42;;;;;;;45.53;30.48;;;20.60;80.00;;;;;;5014069;28;20052;-63
2023/05/23 08:11:08;;;;;;;46.97;29.85;;;20.60;79.60;;;;;;5012507;28;20119;-64
2023/05/23 08:13:33;;;;;;;42.00;29.27;;;20.60;79.10;;;;;;5014427;28;20076;-63
2023/05/23 08:15:59;;;;;;;44.83;30.23;;;20.70;78.60;;;;;;5013252;28;20048;-63
2023/05/23 08:18:25;;;;;;;43.00;30.08;;;20.60;78.50;;;;;;5013757;28;20045;-63
2023/05/23 08:20:50;;;;;;;41.63;28.75;;;20.60;78.60;;;;;;5012752;28;20030;-63
2023/05/23 08:23:16;;;;;;;45.65;29.33;;;20.60;78.50;;;;;;5014447;28;20409;-63
2023/05/23 08:25:42;;;;;;;46.33;29.52;;;20.60;78.70;;;;;;5014208;28;20042;-63
2023/05/23 08:28:08;;;;;;;41.45;28.80;;;20.50;78.80;;;;;;5014428;28;20107;-63
2023/05/23 08:30:33;;;;;;;43.75;28.42;;;20.60;79.20;;;;;;5014420;28;20115;-64
2023/05/23 08:33:03;;;;;;;43.70;29.85;;;20.60;78.90;;;;;;5013446;28;20045;-63
2023/05/23 08:35:33;;;;;;;41.10;28.88;;;20.70;78.50;;;;;;5013864;28;20892;-63
2023/05/23 08:38:00;;;;;;;39.65;27.85;;;20.70;78.40;;;;;;5011286;28;20053;-63
2023/05/23 08:40:28;;;;;;;40.15;27.15;;;20.70;78.50;;;;;;5014053;28;20050;-64
2023/05/23 08:42:53;;;;;;;37.05;26.58;;;20.70;78.10;;;;;;5013974;28;20124;-64
2023/05/23 08:45:19;;;;;;;38.03;27.77;;;20.70;78.10;;;;;;5015628;28;20121;-64
2023/05/23 08:47:46;;;;;;;36.88;25.67;;;20.70;77.80;;;;;;5015351;28;20045;-63
2023/05/23 08:50:13;;;;;;;41.85;27.05;;;20.70;77.70;;;;;;5016663;28;20052;-63
2023/05/23 08:52:58;;;;;;;35.53;25.95;;;20.80;77.90;;;;;;5014475;28;20119;-64
2023/05/23 08:55:27;;;;;;;36.83;25.67;;;20.80;77.10;;;;;;5014126;28;20041;-64
2023/05/23 08:57:59;;;;;;;35.22;25.30;;;20.70;77.20;;;;;;5014148;28;20044;-63
2023/05/23 09:00:26;;;;;;;35.83;25.40;;;20.70;76.80;;;;;;5015015;28;20041;-63
2023/05/23 09:02:53;;;;;;;35.72;24.38;;;20.70;76.70;;;;;;5014142;28;20548;-64
2023/05/23 09:05:19;;;;;;;34.65;24.63;;;20.70;76.30;;;;;;5013886;28;20489;-64
2023/05/23 09:07:46;;;;;;;33.50;24.02;;;20.60;76.40;;;;;;5012019;28;20132;-64
2023/05/23 09:10:15;;;;;;;30.85;23.13;;;20.50;76.80;;;;;;5013515;28;20049;-64
2023/05/23 09:12:42;;;;;;;32.35;23.00;;;20.50;77.30;;;;;;5011505;28;20089;-63
2023/05/23 09:15:08;;;;;;;29.80;22.98;;;20.50;77.50;;;;;;5015589;28;20123;-64
2023/05/23 09:17:35;;;;;;;30.00;21.98;;;20.50;77.70;;;;;;5015122;28;20090;-64
2023/05/23 09:20:01;;;;;;;35.38;23.98;;;20.50;77.50;;;;;;5018551;28;20117;-64
2023/05/23 09:22:27;;;;;;;33.90;24.70;;;20.50;77.00;;;;;;5014870;28;20569;-63
2023/05/23 09:24:54;;;;;;;32.20;24.33;;;20.50;77.00;;;;;;5016925;28;20038;-64
2023/05/23 09:27:20;;;;;;;30.55;23.98;;;20.60;76.40;;;;;;5016382;28;20386;-63
2023/05/23 09:29:48;;;;;;;30.48;22.45;;;20.60;76.10;;;;;;5016419;28;20091;-64
2023/05/23 09:32:18;;;;;;;32.10;23.00;;;20.60;76.70;;;;;;5018046;28;20168;-63
2023/05/23 09:34:56;;;;;;;28.33;22.40;;;20.40;76.60;;;;;;5017615;28;20532;-63
2023/05/23 09:37:32;;;;;;;29.58;22.20;;;20.60;76.20;;;;;;5017517;28;20113;-63
2023/05/23 09:39:59;;;;;;;28.60;23.08;;;20.60;76.20;;;;;;5017960;28;20528;-64
2023/05/23 09:42:31;;;;;;;31.05;23.80;;;20.70;76.10;;;;;;5014216;28;20062;-63
2023/05/23 09:44:57;;;;;;;35.35;24.52;;;20.70;74.80;;;;;;5016727;28;20034;-64
2023/05/23 09:47:23;;;;;;;32.67;23.63;;;20.70;75.10;;;;;;5015699;28;20100;-63
2023/05/23 09:49:50;;;;;;;35.55;25.80;;;20.70;75.60;;;;;;5015040;28;20038;-63
2023/05/23 09:52:16;;;;;;;32.90;24.45;;;20.70;76.30;;;;;;5015547;28;20432;-64
2023/05/23 09:54:42;;;;;;;34.67;25.13;;;20.80;76.20;;;;;;5018763;28;20042;-63
2023/05/23 09:57:14;;;;;;;37.40;25.08;;;20.90;76.40;;;;;;5019707;28;20124;-64
2023/05/23 09:59:41;;;;;;;31.20;24.38;;;20.90;76.00;;;;;;5017646;28;20030;-63
2023/05/23 10:02:23;;;;;;;31.85;23.42;;;21.00;76.30;;;;;;5018838;28;20361;-64
2023/05/23 10:04:52;;;;;;;34.08;24.50;;;21.10;75.90;;;;;;5018538;28;20053;-64
2023/05/23 10:07:22;;;;;;;29.70;23.40;;;21.10;75.30;;;;;;5016643;28;20064;-63
2023/05/23 10:09:55;;;;;;;34.70;24.77;;;21.10;75.80;;;;;;5016531;28;20472;-63
2023/05/23 10:12:38;;;;;;;30.75;22.35;;;21.20;75.60;;;;;;5011661;28;20125;-64
2023/05/23 10:15:06;;;;;;;27.15;20.77;;;21.30;74.20;;;;;;5016593;28;20072;-64
2023/05/23 10:17:36;;;;;;;30.27;22.27;;;21.30;74.70;;;;;;5015732;28;20037;-63
2023/05/23 10:20:07;;;;;;;28.45;23.35;;;21.40;74.60;;;;;;5016470;28;20534;-63
2023/05/23 10:22:35;;;;;;;28.55;20.98;;;21.50;74.60;;;;;;5015864;28;20042;-64
2023/05/23 10:25:04;;;;;;;26.80;20.83;;;21.60;74.20;;;;;;5017264;28;20623;-64
2023/05/23 10:27:30;;;;;;;30.70;22.98;;;21.80;73.00;;;;;;5014689;28;20052;-62
2023/05/23 10:29:58;;;;;;;31.33;23.35;;;21.90;72.90;;;;;;5015027;28;20056;-63
2023/05/23 10:32:25;;;;;;;26.08;21.92;;;22.00;72.30;;;;;;5016304;28;20030;-64
2023/05/23 10:35:09;;;;;;;26.48;21.73;;;22.10;71.70;;;;;;5015828;28;20045;-64
2023/05/23 10:37:39;;;;;;;25.40;19.50;;;22.10;70.20;;;;;;5015631;28;20418;-63
2023/05/23 10:40:05;;;;;;;24.80;19.90;;;22.20;70.70;;;;;;5016738;28;20409;-64
2023/05/23 10:42:39;;;;;;;21.92;17.90;;;22.20;69.90;;;;;;5015035;28;20627;-64
2023/05/23 10:45:22;;;;;;;23.48;17.77;;;22.10;70.40;;;;;;5016399;28;20041;-64
2023/05/23 10:47:49;;;;;;;21.08;18.13;;;22.20;69.70;;;;;;5016311;28;20799;-64
2023/05/23 10:50:32;;;;;;;24.00;19.48;;;22.10;70.50;;;;;;5015293;28;20128;-64
2023/05/23 10:53:03;;;;;;;23.02;20.20;;;22.10;70.00;;;;;;5015513;28;21209;-64
2023/05/23 10:55:35;;;;;;;25.92;20.80;;;22.10;70.60;;;;;;5014238;28;20453;-64
2023/05/23 10:58:11;;;;;;;23.80;19.15;;;22.00;70.40;;;;;;5015933;28;20042;-64
2023/05/23 11:00:37;;;;;;;25.55;20.77;;;22.00;71.30;;;;;;5014646;28;20057;-63
2023/05/23 11:03:07;;;;;;;27.77;21.55;;;22.00;71.30;;;;;;5017324;28;20740;-63
2023/05/23 11:05:35;;;;;;;25.50;20.77;;;21.90;70.90;;;;;;5018314;28;20038;-64
2023/05/23 11:08:14;;;;;;;29.65;23.73;;;21.90;71.70;;;;;;5018284;28;20087;-64
2023/05/23 11:10:53;;;;;;;28.67;23.40;;;21.90;71.20;;;;;;5015321;28;20034;-64
2023/05/23 11:13:20;;;;;;;28.52;23.13;;;21.90;71.50;;;;;;5015400;28;20040;-64
2023/05/23 11:15:49;;;;;;;28.63;24.25;;;22.00;71.40;;;;;;5013747;28;20042;-64
2023/05/23 11:18:25;;;;;;;33.50;25.20;;;21.90;71.10;;;;;;5017500;28;20427;-64
2023/05/23 11:20:52;;;;;;;31.77;24.83;;;21.90;70.60;;;;;;5015484;28;20589;-63
2023/05/23 11:23:18;;;;;;;31.05;24.10;;;21.80;70.70;;;;;;5015333;28;20036;-64
2023/05/23 11:25:46;;;;;;;31.10;24.48;;;21.70;70.90;;;;;;5018026;28;20539;-64
2023/05/23 11:28:12;;;;;;;31.52;24.70;;;21.60;70.70;;;;;;5014951;28;20096;-64
2023/05/23 11:30:39;;;;;;;32.65;25.27;;;21.50;70.80;;;;;;5015197;28;20088;-63
2023/05/23 11:33:15;;;;;;;31.25;25.10;;;21.50;70.60;;;;;;5013960;28;20570;-63
2023/05/23 11:35:46;;;;;;;31.08;24.90;;;21.40;71.30;;;;;;5015414;28;20520;-63
2023/05/23 11:38:14;;;;;;;27.88;22.27;;;21.40;71.30;;;;;;5013295;28;20045;-63
2023/05/23 11:40:42;;;;;;;30.45;24.17;;;21.40;71.50;;;;;;5014271;28;20041;-64
2023/05/23 11:43:18;;;;;;;28.33;23.40;;;21.40;70.80;;;;;;5015290;28;20602;-64
2023/05/23 11:45:45;;;;;;;28.38;23.77;;;21.40;71.60;;;;;;5014397;28;20393;-64
2023/05/23 11:48:15;;;;;;;28.02;23.48;;;21.30;71.30;;;;;;5016412;28;20109;-64
2023/05/23 11:50:52;;;;;;;27.60;21.80;;;21.30;71.50;;;;;;5014855;28;20037;-63
2023/05/23 11:53:20;;;;;;;28.83;23.33;;;21.30;72.00;;;;;;5014115;28;20042;-64
2023/05/23 11:55:49;;;;;;;30.98;23.92;;;21.40;72.90;;;;;;5014270;28;20148;-64
2023/05/23 11:58:15;;;;;;;27.25;23.52;;;21.40;70.30;;;;;;5015120;28;20602;-64
2023/05/23 12:00:45;;;;;;;29.65;24.50;;;21.40;71.00;;;;;;5014055;28;20116;-63
2023/05/23 12:03:10;;;;;;;28.65;23.00;;;21.40;71.60;;;;;;5013609;28;20075;-64
2023/05/23 12:05:36;;;;;;;27.58;23.15;;;21.40;71.90;;;;;;5011789;28;20061;-64
2023/05/23 12:08:01;;;;;;;29.30;22.73;;;21.50;71.80;;;;;;5013649;28;20390;-64
2023/05/23 12:10:28;;;;;;;25.58;21.17;;;21.50;70.20;;;;;;5011848;28;20499;-64
2023/05/23 12:12:54;;;;;;;24.33;21.08;;;21.50;70.60;;;;;;5011593;28;20088;-63
2023/05/23 12:15:24;;;;;;;24.80;20.90;;;21.50;70.40;;;;;;5015171;28;20045;-64
2023/05/23 12:17:53;;;;;;;25.38;22.42;;;21.50;70.10;;;;;;5014536;28;20382;-64
2023/05/23 12:20:20;;;;;;;24.15;20.92;;;21.50;70.00;;;;;;5015287;28;20121;-63
2023/05/23 12:22:45;;;;;;;26.00;21.10;;;21.50;70.60;;;;;;5013821;28;20053;-63
2023/05/23 12:25:11;;;;;;;23.50;20.08;;;21.60;70.50;;;;;;5015453;28;20065;-64
2023/05/23 12:27:39;;;;;;;24.13;19.83;;;21.60;70.60;;;;;;5014541;28;20046;-64
2023/05/23 12:30:10;;;;;;;24.13;19.33;;;21.60;68.90;;;;;;5015180;28;20042;-63